Time;durP1;ratioP1;P1;durP2;ratioP2;P2;SDS_P1;SDS_P2;PMS_P1;PMS_P2;Temp;Humidity;BMP_temperature;BMP_pressure;BME280_temperature;BME280_humidity;BME280_pressure;Samples;Min_cycle;Max_cycle;Signal;HPM_P1;HPM_P2
2022/05/21 00:01:31;;;;;;;4.60;3.10;;;;;;;19.88;58.88;99804.59;4367040;32;32221;-94
2022/05/21 00:04:13;;;;;;;3.60;3.15;;;;;;;19.81;59.08;99797.19;4369781;32;32015;-95
2022/05/21 00:06:57;;;;;;;6.18;2.70;;;;;;;19.83;58.99;99792.56;4397133;32;33080;-96
2022/05/21 00:09:40;;;;;;;3.80;2.85;;;;;;;19.92;58.80;99786.44;4362515;32;32882;-95
2022/05/21 00:12:23;;;;;;;3.62;2.85;;;;;;;20.01;58.47;99788.34;4393247;32;33498;-95
2022/05/21 00:15:06;;;;;;;3.60;3.25;;;;;;;20.14;58.05;99783.69;4381823;32;32476;-94
2022/05/21 00:17:50;;;;;;;5.28;3.40;;;;;;;20.24;57.81;99782.91;4387909;32;33681;-94
2022/05/21 00:20:48;;;;;;;3.50;3.20;;;;;;;20.07;58.40;99787.00;4382260;32;32899;-93
2022/05/21 00:23:33;;;;;;;3.58;2.95;;;;;;;19.89;58.97;99775.97;4365493;32;32557;-94
2022/05/21 00:26:17;;;;;;;4.97;3.25;;;;;;;19.73;59.46;99779.06;4402820;32;33750;-92
2022/05/21 00:28:59;;;;;;;4.87;3.28;;;;;;;19.84;59.12;99764.78;4391699;32;33162;-92
2022/05/21 00:31:41;;;;;;;4.75;3.37;;;;;;;19.79;59.32;99767.00;4394436;32;34275;-96
2022/05/21 00:34:25;;;;;;;5.82;3.42;;;;;;;19.69;59.65;99761.53;4358428;32;32930;-94
2022/05/21 00:37:08;;;;;;;3.65;2.90;;;;;;;19.69;59.56;99767.75;4407548;32;32865;-94
2022/05/21 00:39:51;;;;;;;3.95;3.37;;;;;;;19.75;59.25;99761.06;4397434;32;32577;-95
2022/05/21 00:42:33;;;;;;;3.65;2.87;;;;;;;19.72;59.42;99755.09;4369554;32;33181;-93
2022/05/21 00:45:27;;;;;;;5.30;3.10;;;;;;;19.72;59.27;99747.06;4393106;32;34437;-94
2022/05/21 00:48:09;;;;;;;7.30;3.15;;;;;;;19.82;58.90;99739.97;4420670;32;32425;-91
2022/05/21 00:50:52;;;;;;;6.78;3.60;;;;;;;19.81;58.90;99739.09;4393196;32;32518;-93
2022/05/21 00:53:37;;;;;;;3.60;2.95;;;;;;;19.79;59.05;99745.56;4377638;32;32643;-93
2022/05/21 00:56:22;;;;;;;4.00;2.90;;;;;;;19.76;59.26;99756.53;4381544;32;32283;-93
2022/05/21 01:02:08;;;;;;;4.25;3.50;;;;;;;19.60;59.66;99768.50;4384045;32;32994;-92
2022/05/21 01:04:50;;;;;;;4.43;3.47;;;;;;;19.78;59.06;99771.50;4383243;32;33809;-91
2022/05/21 01:07:32;;;;;;;3.30;3.00;;;;;;;19.67;59.33;99780.44;4389996;32;32833;-92
2022/05/21 01:10:17;;;;;;;3.47;2.87;;;;;;;19.57;59.64;99768.72;4389610;32;33263;-92
2022/05/21 01:13:01;;;;;;;7.97;3.65;;;;;;;19.52;59.86;99768.25;4390874;32;33092;-92
2022/05/21 01:15:47;;;;;;;3.87;3.08;;;;;;;19.52;59.95;99760.22;4392624;32;33768;-91
2022/05/21 01:18:31;;;;;;;3.78;2.78;;;;;;;19.58;59.75;99759.72;4385129;32;34130;-91
2022/05/21 01:21:13;;;;;;;8.10;2.85;;;;;;;19.87;58.86;99776.09;4376390;32;33632;-90
2022/05/21 01:23:55;;;;;;;5.32;3.42;;;;;;;20.02;58.43;99773.13;4387217;32;34093;-91
2022/05/21 01:26:39;;;;;;;4.95;3.97;;;;;;;19.64;59.67;99775.31;4400045;32;33176;-90
2022/05/21 01:29:25;;;;;;;6.28;3.50;;;;;;;19.38;60.28;99771.19;4411351;32;32681;-92
2022/05/21 01:32:16;;;;;;;3.78;2.97;;;;;;;19.38;60.41;99765.84;4386747;32;32029;-91
2022/05/21 01:34:59;;;;;;;3.95;2.95;;;;;;;19.39;60.46;99765.72;4366605;32;32915;-93
2022/05/21 01:37:43;;;;;;;3.50;3.20;;;;;;;19.58;59.93;99762.41;4384287;32;33897;-94
2022/05/21 01:40:26;;;;;;;6.53;3.83;;;;;;;19.66;59.54;99751.94;4348305;32;33563;-94
2022/05/21 01:46:09;;;;;;;4.80;3.47;;;;;;;19.79;59.43;99754.44;4356208;32;33902;-93
2022/05/21 01:49:04;;;;;;;8.23;4.55;;;;;;;19.74;59.47;99761.16;4378087;32;35469;-91
2022/05/21 01:51:46;;;;;;;6.53;3.37;;;;;;;19.52;60.21;99775.44;4382292;32;33499;-95
2022/05/21 01:54:30;;;;;;;5.10;3.90;;;;;;;19.45;60.63;99780.44;4396274;32;33397;-95
2022/05/21 01:57:13;;;;;;;9.13;3.28;;;;;;;19.31;61.34;99796.75;4367610;32;32948;-96
2022/05/21 01:59:58;;;;;;;;;;;;;;;19.62;60.91;99833.53;4353598;32;33069;-94
2022/05/21 02:02:41;;;;;;;5.22;4.43;;;;;;;19.72;60.97;99883.69;4376488;32;33078;-92
2022/05/21 02:05:24;;;;;;;6.40;4.22;;;;;;;19.71;61.35;99908.78;4391896;32;32878;-94
2022/05/21 02:08:07;;;;;;;4.95;4.50;;;;;;;19.50;61.97;99885.34;4364504;32;32501;-95
2022/05/21 02:15:12;;;;;;;4.40;4.00;;;;;;;20.04;60.80;99913.25;4379996;32;34847;-93
2022/05/21 02:17:54;;;;;;;7.03;4.70;;;;;;;19.99;61.13;99926.13;4352671;32;32540;-93
2022/05/21 02:20:37;;;;;;;6.95;4.10;;;;;;;19.82;62.51;99936.41;4380929;32;32896;-92
2022/05/21 02:23:19;;;;;;;4.95;4.28;;;;;;;19.96;63.30;99927.25;4361479;32;33602;-92
2022/05/21 02:26:02;;;;;;;7.37;4.60;;;;;;;19.73;65.59;99922.88;4395400;32;32642;-92
2022/05/21 02:28:57;;;;;;;8.63;4.80;;;;;;;19.67;66.50;99903.66;4406306;32;33951;-91
2022/05/21 02:31:39;;;;;;;6.20;5.00;;;;;;;20.21;65.18;99901.97;4374674;32;32529;-91
2022/05/21 02:34:07;;;;;;;7.00;4.57;;;;;;;20.13;66.31;99916.03;4364180;32;33299;-92
2022/05/21 02:39:25;;;;;;;7.93;4.75;;;;;;;20.59;62.80;99906.88;4381218;32;34062;-90
2022/05/21 02:41:53;;;;;;;5.53;4.97;;;;;;;20.69;61.97;99923.91;4387373;32;33715;-90
2022/05/21 02:44:21;;;;;;;9.10;4.68;;;;;;;20.81;61.74;99926.56;4378644;32;34316;-90
2022/05/21 02:46:50;;;;;;;6.25;5.50;;;;;;;20.92;60.91;99930.03;4378054;32;32770;-90
2022/05/21 02:49:18;;;;;;;4.75;3.95;;;;;;;21.22;60.00;99921.19;4360915;32;32514;-91
2022/05/21 02:52:03;;;;;;;5.22;4.47;;;;;;;21.23;60.07;99919.34;4382633;32;33140;-92
2022/05/21 02:54:46;;;;;;;6.43;4.05;;;;;;;21.13;60.91;99927.34;4379656;32;33235;-93
2022/05/21 02:57:28;;;;;;;5.80;4.22;;;;;;;21.30;60.18;99919.66;4372939;32;33121;-91
2022/05/21 03:00:27;;;;;;;5.93;4.35;;;;;;;20.97;61.61;99932.31;4387600;32;32059;-91
2022/05/21 03:03:09;;;;;;;5.43;4.32;;;;;;;21.32;60.79;99947.31;4373689;32;32782;-93
2022/05/21 03:05:52;;;;;;;6.93;4.43;;;;;;;21.42;60.52;99948.19;4363412;32;33052;-91
2022/05/21 03:11:23;;;;;;;10.23;4.35;;;;;;;21.38;61.26;99936.88;4336483;32;32674;-93
2022/05/21 03:14:05;;;;;;;8.90;4.47;;;;;;;21.61;60.74;99902.63;4366421;32;33017;-91
2022/05/21 03:16:48;;;;;;;5.72;3.70;;;;;;;21.82;59.89;99890.94;4361765;32;34058;-91
2022/05/21 03:19:32;;;;;;;4.03;3.53;;;;;;;21.48;60.75;99896.63;4358004;32;32485;-91
2022/05/21 03:22:15;;;;;;;4.78;3.22;;;;;;;21.42;61.16;99889.09;4381252;32;32709;-90
2022/05/21 03:25:01;;;;;;;3.55;3.20;;;;;;;21.56;60.63;99909.37;4366957;32;32987;-94
2022/05/21 03:27:43;;;;;;;4.00;2.53;;;;;;;21.50;60.78;99909.91;4352033;32;33206;-93
2022/05/21 03:30:28;;;;;;;2.97;2.67;;;;;;;21.81;59.54;99908.91;4340832;33;32917;-93
2022/05/21 03:33:11;;;;;;;2.45;2.25;;;;;;;21.41;60.99;99914.25;4392846;32;32380;-92
2022/05/21 03:35:53;;;;;;;3.70;2.47;;;;;;;21.88;59.35;99895.78;4352246;32;33215;-91
2022/05/21 03:38:38;;;;;;;5.25;2.50;;;;;;;21.79;59.90;99893.91;4355215;32;33532;-94
2022/05/21 03:41:20;;;;;;;2.90;2.22;;;;;;;21.42;60.34;99894.47;4355922;32;33776;-94
2022/05/21 03:46:51;;;;;;;2.22;1.98;;;;;;;21.93;59.39;99882.75;4393253;32;33206;-94
2022/05/21 03:49:34;;;;;;;2.58;2.00;;;;;;;22.16;58.56;99835.00;4346161;33;32830;-94
2022/05/21 03:52:18;;;;;;;4.72;2.10;;;;;;;22.21;58.49;99847.03;4375337;32;32998;-96
2022/05/21 03:55:01;;;;;;;3.03;2.00;;;;;;;21.90;59.81;99823.91;4344488;32;31544;-92
2022/05/21 03:57:45;;;;;;;2.62;1.80;;;;;;;22.23;58.66;99810.13;4374477;32;33145;-92
2022/05/21 04:00:28;;;;;;;3.85;1.73;;;;;;;21.89;59.96;99789.97;4359577;32;33581;-92
2022/05/21 04:03:21;;;;;;;3.22;2.12;;;;;;;22.22;57.99;99781.53;4358129;32;33075;-92
2022/05/21 04:06:07;;;;;;;3.05;1.27;;;;;;;22.23;57.05;99772.47;4359721;32;33498;-91
2022/05/21 04:09:00;;;;;;;1.15;0.98;;;;;;;22.39;55.79;99779.94;4383624;32;33654;-93
2022/05/21 04:11:42;;;;;;;1.33;1.20;;;;;;;22.64;54.86;99786.56;4387863;32;32815;-94
2022/05/21 04:14:29;;;;;;;2.45;1.55;;;;;;;22.47;54.70;99779.22;4375595;32;32838;-91
2022/05/21 04:17:23;;;;;;;2.80;1.50;;;;;;;22.16;56.57;99779.37;4398199;32;33445;-92
2022/05/21 04:20:12;;;;;;;3.08;1.08;;;;;;;22.65;54.58;99782.88;4390561;32;33163;-94
2022/05/21 04:22:58;;;;;;;1.98;1.08;;;;;;;22.75;54.27;99772.94;4374807;32;32539;-94
2022/05/21 04:25:42;;;;;;;4.60;1.30;;;;;;;22.55;54.41;99755.16;4375892;32;32922;-93
2022/05/21 04:28:37;;;;;;;6.25;1.23;;;;;;;22.59;54.45;99758.38;4408891;32;34188;-91
2022/05/21 04:31:17;;;;;;;3.75;1.67;;;;;;;22.78;53.55;99765.56;4381113;32;32551;-93
2022/05/21 04:34:10;;;;;;;1.25;1.12;;;;;;;22.27;57.02;99780.25;4422453;32;33555;-92
2022/05/21 04:36:55;;;;;;;1.75;1.15;;;;;;;21.85;56.97;99799.28;4383569;32;34081;-94
2022/05/21 04:39:46;;;;;;;2.03;1.20;;;;;;;22.15;55.64;99796.50;4388353;32;32506;-91
2022/05/21 04:42:29;;;;;;;2.50;1.02;;;;;;;22.28;57.31;99816.91;4375548;32;33493;-91
2022/05/21 04:45:15;;;;;;;9.77;1.60;;;;;;;22.70;55.41;99841.66;4369734;32;32935;-90
2022/05/21 04:47:59;;;;;;;5.80;1.62;;;;;;;22.69;55.08;99858.78;4355177;32;32702;-90
2022/05/21 04:50:42;;;;;;;2.30;1.55;;;;;;;22.77;55.21;99867.00;4359786;32;32237;-90
2022/05/21 04:53:47;;;;;;;2.95;1.50;;;;;;;23.22;53.88;99851.09;4418926;32;34350;-91
2022/05/21 04:56:31;;;;;;;3.78;1.55;;;;;;;23.10;54.80;99863.00;4411281;32;33417;-91
2022/05/21 04:59:14;;;;;;;4.75;1.40;;;;;;;23.09;56.05;99872.09;4338666;32;32939;-91
2022/05/21 05:01:58;;;;;;;3.65;1.67;;;;;;;23.62;54.36;99860.69;4386470;32;32082;-94
2022/05/21 05:04:40;;;;;;;4.53;1.90;;;;;;;23.62;54.18;99863.37;4386668;32;33335;-92
2022/05/21 05:07:26;;;;;;;4.12;1.73;;;;;;;23.30;55.61;99860.25;4365102;32;33066;-92
2022/05/21 05:10:10;;;;;;;3.90;1.80;;;;;;;23.21;55.68;99886.22;4376489;32;32791;-92
2022/05/21 05:12:53;;;;;;;2.17;1.17;;;;;;;23.46;55.34;99884.75;4367305;32;32179;-92
2022/05/21 05:15:37;;;;;;;2.40;1.30;;;;;;;23.39;55.85;99878.25;4357459;32;33941;-91
2022/05/21 05:21:15;;;;;;;3.97;1.85;;;;;;;23.46;55.76;99884.75;4379276;32;32481;-92
2022/05/21 05:23:59;;;;;;;4.85;1.52;;;;;;;22.89;57.38;99889.28;4360678;32;32499;-91
2022/05/21 05:26:42;;;;;;;1.25;1.12;;;;;;;22.95;57.45;99894.09;4376027;32;33082;-91
2022/05/21 05:29:34;;;;;;;6.07;1.35;;;;;;;22.95;57.35;99903.00;4384913;32;33083;-89
2022/05/21 05:32:24;;;;;;;2.85;1.52;;;;;;;22.89;57.77;99919.75;4352832;32;32516;-91
2022/05/21 05:35:12;;;;;;;4.03;1.98;;;;;;;22.87;58.54;99920.84;4389455;32;33040;-91
2022/05/21 05:37:56;;;;;;;1.95;1.50;;;;;;;22.64;58.51;99933.72;4339691;33;33646;-92
2022/05/21 05:40:40;;;;;;;2.08;1.35;;;;;;;22.81;58.23;99926.81;4361416;32;33874;-91
2022/05/21 05:43:24;;;;;;;3.00;1.90;;;;;;;22.80;57.81;99925.97;4360820;32;247252;-91
2022/05/21 05:46:13;;;;;;;3.87;1.42;;;;;;;22.23;60.14;99920.38;4347784;32;32303;-91
2022/05/21 05:48:55;;;;;;;2.03;1.52;;;;;;;22.65;58.62;99917.47;4396700;32;32784;-92
2022/05/21 05:51:38;;;;;;;3.33;1.58;;;;;;;22.75;58.09;99923.69;4399618;32;32921;-91
2022/05/21 05:54:22;;;;;;;2.20;1.45;;;;;;;22.55;58.81;99903.16;4391344;32;34168;-90
2022/05/21 05:57:10;;;;;;;3.33;1.92;;;;;;;22.69;58.45;99891.09;4379401;32;32561;-91
2022/05/21 05:59:56;;;;;;;4.20;1.35;;;;;;;22.75;58.91;99901.31;4384579;32;32655;-91
2022/05/21 06:05:41;;;;;;;3.20;1.52;;;;;;;22.58;58.98;99902.00;4369805;32;33346;-91
2022/05/21 06:08:26;;;;;;;2.58;2.08;;;;;;;22.86;57.42;99903.00;4406267;32;32551;-90
2022/05/21 06:11:13;;;;;;;2.53;1.08;;;;;;;22.78;56.56;99905.53;4390853;32;34565;-91
2022/05/21 06:13:56;;;;;;;5.70;0.88;;;;;;;22.71;57.12;99898.03;4369640;32;32815;-91
2022/05/21 06:16:41;;;;;;;2.08;1.00;;;;;;;22.72;56.38;99918.56;4404359;32;32743;-91
2022/05/21 06:19:26;;;;;;;3.03;1.10;;;;;;;22.60;57.05;99929.62;4370606;32;32408;-92
2022/05/21 06:22:09;;;;;;;4.12;1.00;;;;;;;22.27;58.86;99933.56;4379818;32;32619;-94
2022/05/21 06:24:57;;;;;;;3.42;0.93;;;;;;;21.39;63.04;99952.00;4391139;32;33556;-93
2022/05/21 06:27:41;;;;;;;7.53;1.27;;;;;;;21.60;63.04;99957.34;4367776;32;33059;-92
2022/05/21 06:30:41;;;;;;;3.97;1.37;;;;;;;21.83;63.35;99958.00;4397554;32;33934;-92
2022/05/21 06:33:26;;;;;;;2.25;1.20;;;;;;;21.88;63.62;99942.31;4396637;32;32944;-92
2022/05/21 06:36:14;;;;;;;4.57;1.25;;;;;;;21.27;65.46;99941.41;4383343;32;32884;-93
2022/05/21 06:38:58;;;;;;;2.05;1.30;;;;;;;21.43;66.06;99934.63;4356239;32;32391;-94
2022/05/21 06:41:41;;;;;;;2.92;1.08;;;;;;;21.19;66.12;99940.25;4350636;32;32673;-93
2022/05/21 06:44:25;;;;;;;3.67;1.30;;;;;;;21.28;65.43;99924.34;4386612;32;33123;-93
2022/05/21 06:47:19;;;;;;;2.55;0.90;;;;;;;21.19;65.76;99921.44;4377878;32;33820;-93
2022/05/21 06:50:08;;;;;;;2.35;0.90;;;;;;;21.20;66.05;99915.09;4370661;32;33226;-92
2022/05/21 06:52:51;;;;;;;4.82;1.40;;;;;;;21.52;64.90;99908.81;4374321;32;32601;-94
2022/05/21 06:55:42;;;;;;;4.15;1.37;;;;;;;21.57;65.32;99901.19;4378508;32;32582;-92
2022/05/21 06:58:29;;;;;;;6.72;1.30;;;;;;;21.52;66.50;99894.53;4342480;32;33605;-92
2022/05/21 07:01:19;;;;;;;2.50;1.60;;;;;;;21.72;65.81;99877.47;4360792;32;32862;-93
2022/05/21 07:04:10;;;;;;;1.52;1.08;;;;;;;21.63;66.36;99887.19;4383490;32;33196;-93
2022/05/21 07:09:40;;;;;;;2.53;1.65;;;;;;;22.03;65.04;99867.53;4368374;32;34141;-94
2022/05/21 07:12:25;;;;;;;4.03;2.08;;;;;;;22.51;62.77;99868.59;4343877;32;32934;-94
2022/05/21 07:18:24;;;;;;;2.72;1.92;;;;;;;22.18;64.19;99873.38;4378456;32;32598;-92
2022/05/21 07:21:10;;;;;;;3.53;1.73;;;;;;;22.40;63.62;99881.16;4375022;32;32850;-92
2022/05/21 07:23:54;;;;;;;4.55;1.55;;;;;;;22.33;64.01;99879.22;4372701;32;33942;-94
2022/05/21 07:26:38;;;;;;;2.20;1.58;;;;;;;22.24;64.84;99872.81;4395904;32;33039;-94
2022/05/21 07:29:20;;;;;;;3.20;2.25;;;;;;;22.39;64.74;99873.25;4364097;32;32722;-95
2022/05/21 07:32:05;;;;;;;3.22;1.80;;;;;;;22.40;64.30;99873.09;4367168;32;33322;-94
2022/05/21 07:35:15;;;;;;;3.55;2.12;;;;;;;22.61;63.17;99878.37;4371096;32;33056;-94
2022/05/21 07:38:08;;;;;;;2.20;1.87;;;;;;;22.78;63.16;99879.47;4402521;32;33892;-93
2022/05/21 07:40:53;;;;;;;4.00;1.85;;;;;;;22.77;63.82;99879.63;4338412;32;771242;-94
2022/05/21 07:43:37;;;;;;;3.37;1.55;;;;;;;23.04;61.44;99887.00;4367913;32;32722;-93
2022/05/21 07:46:20;;;;;;;3.22;1.85;;;;;;;23.45;60.64;99881.22;4380268;32;33481;-92
2022/05/21 07:53:36;;;;;;;2.85;1.52;;;;;;;23.50;59.96;99888.84;4366174;32;34714;-92
2022/05/21 07:56:29;;;;;;;1.77;1.60;;;;;;;23.66;59.58;99918.75;4373225;32;34499;-93
2022/05/21 07:59:11;;;;;;;5.90;2.40;;;;;;;23.90;59.81;99934.38;4361277;32;32569;-93
2022/05/21 08:01:56;;;;;;;4.07;1.77;;;;;;;24.19;57.13;99939.63;4347644;33;32486;-95
2022/05/21 08:04:47;;;;;;;2.60;1.65;;;;;;;24.85;56.33;99937.63;4380642;32;33016;-93
2022/05/21 08:07:33;;;;;;;1.95;1.40;;;;;;;24.44;54.40;99938.06;4369743;32;33312;-93
2022/05/21 08:10:22;;;;;;;3.25;1.73;;;;;;;24.76;53.87;99929.44;4388038;32;32588;-93
2022/05/21 08:13:06;;;;;;;2.55;1.52;;;;;;;24.97;53.10;99937.25;4381539;32;32936;-94
2022/05/21 08:15:56;;;;;;;3.67;1.35;;;;;;;24.64;54.66;99929.81;4390392;32;32577;-94
2022/05/21 08:18:38;;;;;;;5.28;1.60;;;;;;;25.34;52.79;99932.63;4361242;32;33656;-93
2022/05/21 08:21:34;;;;;;;3.65;1.92;;;;;;;25.38;52.46;99924.03;4394122;32;32829;-92
2022/05/21 08:27:20;;;;;;;3.58;2.20;;;;;;;25.49;51.19;99931.03;4368833;32;33388;-92
2022/05/21 08:30:07;;;;;;;4.37;2.20;;;;;;;25.73;50.76;99916.78;4402706;32;34249;-92
2022/05/21 08:33:05;;;;;;;3.55;2.28;;;;;;;25.84;49.73;99904.91;4407178;32;34393;-89
2022/05/21 08:35:40;;;;;;;5.25;2.12;;;;;;;25.69;50.77;99908.19;4395116;32;32003;-89
2022/05/21 08:41:16;;;;;;;4.62;1.87;;;;;;;26.17;50.67;99909.41;4391868;32;33198;-93
2022/05/21 08:44:14;;;;;;;4.28;2.22;;;;;;;26.10;49.63;99908.34;4379177;32;32300;-92
2022/05/21 08:47:30;;;;;;;3.35;2.08;;;;;;;26.06;51.35;99901.56;4366091;32;32302;-91
2022/05/21 08:50:25;;;;;;;2.58;1.98;;;;;;;25.88;50.79;99898.16;4366383;32;34493;-92
2022/05/21 08:53:12;;;;;;;2.67;2.10;;;;;;;25.91;50.21;99914.88;4365492;32;33731;-91
2022/05/21 08:56:21;;;;;;;6.15;2.85;;;;;;;25.65;50.72;99919.47;4378114;32;32504;-91
2022/05/21 08:59:06;;;;;;;4.40;2.80;;;;;;;25.43;51.74;99918.16;4391001;32;31653;-91
2022/05/21 09:02:17;;;;;;;5.22;2.87;;;;;;;25.53;51.65;99917.03;4375751;32;34569;-90
2022/05/21 09:05:08;;;;;;;7.18;3.72;;;;;;;25.19;53.11;99921.56;4391994;32;33243;-91
2022/05/21 09:07:58;;;;;;;4.68;2.42;;;;;;;25.91;52.74;99914.88;4360602;32;33635;-91
2022/05/21 09:11:04;;;;;;;6.72;2.70;;;;;;;26.34;51.08;99904.03;4366815;32;32279;-90
2022/05/21 09:14:00;;;;;;;6.47;2.30;;;;;;;26.49;47.71;99905.09;4350027;32;32723;-91
2022/05/21 09:16:56;;;;;;;3.95;2.53;;;;;;;26.28;48.66;99909.09;4362813;32;33283;-91
2022/05/21 09:19:57;;;;;;;6.00;2.08;;;;;;;26.86;46.16;99901.06;4387379;32;32213;-90
2022/05/21 09:22:53;;;;;;;4.32;2.90;;;;;;;27.05;43.98;99919.69;4349265;32;32201;-91
2022/05/21 09:25:42;;;;;;;6.28;2.72;;;;;;;27.13;44.63;99906.16;4350192;32;33176;-91
2022/05/21 09:29:31;;;;;;;4.60;2.47;;;;;;;27.30;44.41;99913.28;4372838;32;32633;-90
2022/05/21 09:32:19;;;;;;;4.20;2.75;;;;;;;27.55;43.99;99916.78;4395866;32;33227;-94
2022/05/21 09:35:13;;;;;;;3.25;2.22;;;;;;;27.39;42.71;99902.37;4381098;32;31856;-94
2022/05/21 09:37:58;;;;;;;3.55;2.40;;;;;;;27.79;42.28;99906.88;4376122;32;32924;-94
2022/05/21 09:41:14;;;;;;;4.43;2.08;;;;;;;27.65;42.00;99903.00;4393068;32;35832;-94
2022/05/21 09:51:24;;;;;;;2.67;2.05;;;;;;;27.83;41.29;99908.25;4376036;32;34614;-94
2022/05/21 09:54:25;;;;;;;1.80;1.55;;;;;;;27.75;40.45;99911.81;4353601;32;32536;-88
2022/05/21 09:57:31;;;;;;;1.83;1.50;;;;;;;27.63;39.57;99910.50;4363123;32;32999;-90
2022/05/21 10:00:23;;;;;;;4.18;1.30;;;;;;;27.66;39.27;99901.97;4359991;32;32745;-90
2022/05/21 10:02:57;;;;;;;16.95;3.45;;;;;;;28.07;39.48;99899.12;4368481;32;33555;-89
2022/05/21 10:05:35;;;;;;;7.37;2.72;;;;;;;28.11;39.17;99905.91;4375306;32;33310;-90
2022/05/21 10:11:53;;;;;;;6.60;1.70;;;;;;;28.60;36.81;99902.91;4369708;32;32514;-90
2022/05/21 10:14:58;;;;;;;5.05;1.85;;;;;;;28.65;35.47;99902.37;4363410;32;33876;-90
2022/05/21 10:17:32;;;;;;;3.90;1.80;;;;;;;28.98;35.99;99897.53;4382578;32;34174;-90
2022/05/21 10:20:34;;;;;;;1.30;1.20;;;;;;;29.21;37.52;99897.50;4388999;32;33800;-94
2022/05/21 10:23:34;;;;;;;1.75;1.10;;;;;;;29.25;35.19;99885.22;4380814;32;32337;-93
2022/05/21 10:26:44;;;;;;;1.73;1.23;;;;;;;28.91;32.72;99899.25;4383875;32;33730;-94
2022/05/21 10:34:03;;;;;;;;;;;;;;;29.48;33.88;99894.16;4412600;32;34589;-96
2022/05/21 10:36:49;;;;;;;3.65;1.27;;;;;;;29.63;33.53;99894.19;4348529;32;32238;-89
2022/05/21 10:45:21;;;;;;;2.83;1.20;;;;;;;29.62;31.52;99873.44;4355145;32;33386;-89
2022/05/21 10:48:09;;;;;;;4.70;1.55;;;;;;;29.88;32.66;99883.00;4352741;32;32403;-89
2022/05/21 10:50:55;;;;;;;6.00;1.65;;;;;;;29.91;32.74;99882.59;4347427;32;34850;-90
2022/05/21 10:53:37;;;;;;;2.00;1.08;;;;;;;29.64;33.99;99887.69;4354208;32;33982;-89
2022/05/21 10:56:38;;;;;;;1.50;0.77;;;;;;;29.93;32.04;99886.00;4353916;32;33639;-89
2022/05/21 11:00:01;;;;;;;1.75;0.82;;;;;;;29.99;29.13;99890.66;4343851;32;32053;-89
2022/05/21 11:03:11;;;;;;;1.55;1.08;;;;;;;29.84;27.75;99883.34;4350799;32;32700;-89
2022/05/21 11:06:12;;;;;;;1.85;1.23;;;;;;;30.10;30.01;99882.84;4327981;33;33122;-88
2022/05/21 11:08:54;;;;;;;1.98;1.10;;;;;;;29.67;29.39;99870.97;4343956;32;33576;-88
2022/05/21 11:11:44;;;;;;;2.15;1.15;;;;;;;30.34;28.41;99884.41;4344730;33;32914;-88
2022/05/21 11:17:07;;;;;;;1.80;1.00;;;;;;;29.85;28.90;99881.47;4339983;33;33312;-88
2022/05/21 11:19:50;;;;;;;1.58;1.20;;;;;;;29.63;28.23;99890.62;4359336;32;33789;-88
2022/05/21 11:22:59;;;;;;;2.62;1.20;;;;;;;29.87;29.84;99875.88;4357022;32;32004;-88
2022/05/21 11:25:58;;;;;;;3.45;1.17;;;;;;;29.67;30.58;99870.97;4357027;32;33180;-89
2022/05/21 11:28:45;;;;;;;1.62;1.30;;;;;;;29.93;29.73;99864.22;4342010;32;33611;-88
2022/05/21 11:37:20;;;;;;;1.83;1.25;;;;;;;30.08;30.24;99867.72;4352281;32;33870;-88
2022/05/21 11:39:50;;;;;;;6.55;1.33;;;;;;;30.24;29.84;99851.22;4362216;32;34279;-89
2022/05/21 11:42:27;;;;;;;1.90;1.30;;;;;;;30.19;31.77;99859.09;4345672;33;33937;-88
2022/05/21 11:45:23;;;;;;;5.20;1.20;;;;;;;29.82;28.20;99880.00;4361553;32;33168;-89
2022/05/21 11:48:12;;;;;;;2.83;1.27;;;;;;;29.80;28.19;99854.00;4368271;32;32626;-88
2022/05/21 11:50:41;;;;;;;1.87;1.60;;;;;;;29.49;29.07;99859.62;4346990;33;33885;-89
2022/05/21 11:53:47;;;;;;;2.78;2.05;;;;;;;29.90;29.16;99853.69;4348022;33;33648;-89
2022/05/21 11:56:18;;;;;;;1.15;1.05;;;;;;;30.02;29.78;99858.47;4312886;33;33642;-89
2022/05/21 11:59:00;;;;;;;2.62;1.42;;;;;;;30.56;29.28;99862.63;4333198;33;33493;-89
2022/05/21 12:01:40;;;;;;;1.87;1.50;;;;;;;30.02;29.46;99863.06;4333190;33;33163;-89
2022/05/21 12:04:45;;;;;;;3.20;1.40;;;;;;;30.03;30.66;99856.56;4345462;33;32688;-88
2022/05/21 12:07:19;;;;;;;2.22;1.45;;;;;;;30.18;29.71;99864.72;4355882;32;33934;-89
2022/05/21 12:10:01;;;;;;;2.40;1.40;;;;;;;29.95;30.37;99856.69;4355348;32;34742;-89
2022/05/21 12:12:30;;;;;;;1.70;1.10;;;;;;;30.01;30.25;99856.78;4326773;33;32936;-89
2022/05/21 12:15:18;;;;;;;4.32;1.85;;;;;;;30.32;29.58;99848.34;4338313;33;33914;-88
2022/05/21 12:17:52;;;;;;;4.30;1.75;;;;;;;30.63;29.44;99849.06;4355381;32;32870;-88
2022/05/21 12:20:51;;;;;;;2.25;1.67;;;;;;;30.68;29.90;99841.16;4352417;32;33037;-88
2022/05/21 12:23:35;;;;;;;3.22;1.60;;;;;;;30.21;30.57;99851.59;4338592;32;34251;-89
2022/05/21 12:26:27;;;;;;;2.75;1.90;;;;;;;29.93;31.02;99842.44;4343554;33;33268;-89
2022/05/21 12:28:56;;;;;;;1.65;1.00;;;;;;;30.40;31.16;99839.22;4350080;32;33308;-88
2022/05/21 12:31:38;;;;;;;2.20;1.42;;;;;;;30.27;29.89;99844.50;4357930;32;33512;-88
2022/05/21 12:34:37;;;;;;;2.60;1.60;;;;;;;30.22;30.33;99836.91;4338092;32;33118;-89
2022/05/21 12:37:38;;;;;;;1.40;1.23;;;;;;;30.25;31.61;99838.44;4356231;32;33077;-87
2022/05/21 12:40:19;;;;;;;2.65;1.48;;;;;;;30.33;29.67;99828.22;4369560;32;33115;-89
2022/05/21 12:42:58;;;;;;;3.67;2.12;;;;;;;30.51;30.01;99841.41;4361181;32;33720;-89
2022/05/21 12:45:42;;;;;;;1.87;1.08;;;;;;;30.65;28.38;99833.34;4346824;32;33011;-89
2022/05/21 12:48:24;;;;;;;1.73;1.35;;;;;;;30.19;25.88;99841.91;4330273;33;33191;-89
2022/05/21 12:51:06;;;;;;;2.60;1.08;;;;;;;30.17;25.26;99839.38;4359891;32;31719;-88
2022/05/21 12:54:04;;;;;;;4.62;1.20;;;;;;;30.00;27.85;99843.34;4355324;32;34673;-88
2022/05/21 12:56:36;;;;;;;3.08;0.90;;;;;;;29.83;25.76;99838.12;4356737;32;34027;-88
2022/05/21 12:59:07;;;;;;;2.45;0.88;;;;;;;29.77;25.73;99836.19;4355454;32;33345;-88
2022/05/21 13:01:43;;;;;;;;;;;;;;;29.70;26.05;99832.50;4356496;32;32657;-88
2022/05/21 13:04:41;;;;;;;2.05;1.20;;;;;;;30.16;24.77;99837.72;4347058;33;33330;-88
2022/05/21 13:07:17;;;;;;;3.83;1.27;;;;;;;30.05;24.46;99830.00;4333295;33;33662;-89
2022/05/21 13:10:16;;;;;;;2.87;0.70;;;;;;;29.83;26.64;99838.12;4358133;32;34172;-88
2022/05/21 13:12:51;;;;;;;3.05;0.68;;;;;;;29.83;25.36;99820.97;4359459;32;33132;-88
2022/05/21 13:15:27;;;;;;;3.47;0.85;;;;;;;30.18;24.54;99824.72;4360409;32;34202;-88
2022/05/21 13:18:24;;;;;;;4.12;0.90;;;;;;;30.12;24.01;99832.81;4355130;32;32890;-88
2022/05/21 13:21:09;;;;;;;4.20;0.95;;;;;;;29.65;25.89;99828.69;4367545;32;34127;-89
2022/05/21 13:23:47;;;;;;;3.33;0.90;;;;;;;29.79;25.12;99833.25;4356356;32;31588;-88
2022/05/21 13:26:21;;;;;;;5.90;1.42;;;;;;;29.67;25.57;99819.28;4351821;32;32483;-90
2022/05/21 13:28:51;;;;;;;0.60;0.60;;;;;;;30.18;26.66;99830.16;4348864;32;32472;-91
2022/05/21 13:33:58;;;;;;;4.97;1.30;;;;;;;29.98;26.04;99818.19;4352703;32;33856;-90
2022/05/21 13:36:34;;;;;;;2.00;1.27;;;;;;;30.11;26.25;99812.91;4347895;32;33189;-92
2022/05/21 13:39:05;;;;;;;2.97;1.27;;;;;;;30.08;27.13;99821.44;4336181;33;32729;-91
2022/05/21 13:41:40;;;;;;;0.80;0.70;;;;;;;30.17;26.87;99811.31;4336305;33;33251;-92
2022/05/21 13:45:30;;;;;;;1.35;0.90;;;;;;;30.04;27.18;99815.53;4326098;33;34125;-91
2022/05/21 13:48:16;;;;;;;3.78;1.37;;;;;;;29.99;27.00;99804.38;4284030;33;33262;-91
2022/05/21 13:50:45;;;;;;;1.77;0.70;;;;;;;29.80;26.88;99807.72;4307749;33;33561;-91
2022/05/21 13:57:31;;;;;;;1.12;0.65;;;;;;;30.10;24.75;99800.31;4332317;33;34240;-91
2022/05/21 14:00:20;;;;;;;1.67;0.70;;;;;;;29.76;25.06;99804.53;4319288;33;32806;-92
2022/05/21 14:03:19;;;;;;;1.45;0.70;;;;;;;29.87;24.72;99796.94;4339962;32;33423;-92
2022/05/21 14:05:57;;;;;;;0.82;0.70;;;;;;;29.69;24.80;99795.47;4350496;32;32948;-91
2022/05/21 14:09:17;;;;;;;4.32;0.90;;;;;;;29.59;24.56;99786.75;4330746;33;34869;-91
2022/05/21 14:12:03;;;;;;;3.17;1.10;;;;;;;29.63;24.90;99788.06;4338429;33;32825;-93
2022/05/21 14:14:49;;;;;;;2.33;1.10;;;;;;;29.57;24.91;99788.81;4350832;32;32840;-94
2022/05/21 14:17:53;;;;;;;4.90;1.00;;;;;;;29.65;25.06;99785.97;4329332;33;34719;-93
2022/05/21 14:20:35;;;;;;;1.80;0.88;;;;;;;29.29;26.13;99778.59;4328081;33;33380;-91
2022/05/21 14:26:33;;;;;;;2.30;0.68;;;;;;;29.41;26.50;99772.69;4336702;33;33788;-90